Kezdőlap
METAR-TAF:

METAR-TAF

Repülőterek :

Lublin, Lengyelország

földrajzi szélesség: 51-13-55N, földrajzi hosszúság: 22-41-25E, magasság: 203 m

Jelenlegi meteorológiai megfigyelések

A jelentés 19 perccel ezelõtt készült, 21:00 UTC
Északkeleti szél 2 kt
Hőmérséklet 16°C
Páratartalom 82%
Légköri nyomás 1023 hPa
Látótávolság 10 km, vagy több
felhőtlen 1500 m magasságban, és nincs gomolyfelhõ

METAR: EPLB 272100Z 05002KT CAVOK 16/13 Q1023

Idő: 23:19 (21:19 UTC)


TAF: hiányzik

Meteorológiai megfigyelések és előrejelzések több, mint 4000 repülőtéren (METAR és TAF jelentéseket).

A térképen piros és sárga pontok jelzik az elérhető meteorológiai állomásokat.

Mozgassa az egeret a pont fölött, hogy megjelenjen az állomás neve.

Azután kattintson az időjárási megfigyelések és előrejelzések megtekintéséhez.

A térkép megváltoztatása: kattintson a fekete keresztel jelölt zöld gombra ráközelítéshez, a vonallal jelölt zöld gombra távolításhoz, vagy a zöld nyilakra a szomszédos térképek eléréséhez.


METAR-TAF: